sensor_id;sensor_type;location;lat;lon;timestamp;P1;durP1;ratioP1;P2;durP2;ratioP2
59109;SDS011;44895;47.438;18.978;2023-02-03T00:02:28;6.30;;;2.28;;
59109;SDS011;44895;47.438;18.978;2023-02-03T00:05:32;10.77;;;2.22;;
59109;SDS011;44895;47.438;18.978;2023-02-03T00:08:37;7.13;;;2.40;;
59109;SDS011;44895;47.438;18.978;2023-02-03T00:11:42;6.55;;;2.47;;
59109;SDS011;44895;47.438;18.978;2023-02-03T00:14:45;3.90;;;1.45;;
59109;SDS011;44895;47.438;18.978;2023-02-03T00:17:49;5.90;;;1.85;;
59109;SDS011;44895;47.438;18.978;2023-02-03T00:20:53;10.65;;;2.78;;
59109;SDS011;44895;47.438;18.978;2023-02-03T00:23:56;5.07;;;1.63;;
59109;SDS011;44895;47.438;18.978;2023-02-03T00:27:00;7.13;;;1.92;;
59109;SDS011;44895;47.438;18.978;2023-02-03T00:30:04;7.55;;;2.10;;
59109;SDS011;44895;47.438;18.978;2023-02-03T00:33:09;4.38;;;1.80;;
59109;SDS011;44895;47.438;18.978;2023-02-03T00:36:13;5.32;;;1.63;;
59109;SDS011;44895;47.438;18.978;2023-02-03T00:39:16;5.63;;;1.88;;
59109;SDS011;44895;47.438;18.978;2023-02-03T00:42:20;5.60;;;2.50;;
59109;SDS011;44895;47.438;18.978;2023-02-03T00:45:24;6.70;;;2.58;;
59109;SDS011;44895;47.438;18.978;2023-02-03T00:48:28;6.25;;;2.55;;
59109;SDS011;44895;47.438;18.978;2023-02-03T00:51:32;6.03;;;2.55;;
59109;SDS011;44895;47.438;18.978;2023-02-03T00:54:36;7.57;;;1.90;;
59109;SDS011;44895;47.438;18.978;2023-02-03T00:57:40;5.50;;;2.00;;
59109;SDS011;44895;47.438;18.978;2023-02-03T01:00:43;4.85;;;2.05;;
59109;SDS011;44895;47.438;18.978;2023-02-03T01:03:47;10.30;;;4.05;;
59109;SDS011;44895;47.438;18.978;2023-02-03T01:06:52;5.88;;;1.83;;
59109;SDS011;44895;47.438;18.978;2023-02-03T01:10:00;7.80;;;2.22;;
59109;SDS011;44895;47.438;18.978;2023-02-03T01:13:03;5.50;;;2.00;;
59109;SDS011;44895;47.438;18.978;2023-02-03T01:16:09;6.45;;;2.60;;
59109;SDS011;44895;47.438;18.978;2023-02-03T01:19:14;5.07;;;1.88;;
59109;SDS011;44895;47.438;18.978;2023-02-03T01:22:19;6.75;;;1.95;;
59109;SDS011;44895;47.438;18.978;2023-02-03T01:25:22;6.38;;;2.08;;
59109;SDS011;44895;47.438;18.978;2023-02-03T01:28:26;9.52;;;2.50;;
59109;SDS011;44895;47.438;18.978;2023-02-03T01:31:30;4.45;;;1.88;;
59109;SDS011;44895;47.438;18.978;2023-02-03T01:34:37;4.45;;;1.77;;
59109;SDS011;44895;47.438;18.978;2023-02-03T01:37:42;4.30;;;1.50;;
59109;SDS011;44895;47.438;18.978;2023-02-03T01:40:47;4.88;;;1.90;;
59109;SDS011;44895;47.438;18.978;2023-02-03T01:43:52;3.67;;;2.08;;
59109;SDS011;44895;47.438;18.978;2023-02-03T01:46:57;7.95;;;2.67;;
59109;SDS011;44895;47.438;18.978;2023-02-03T01:50:13;4.65;;;1.85;;
59109;SDS011;44895;47.438;18.978;2023-02-03T01:53:20;5.95;;;2.03;;
59109;SDS011;44895;47.438;18.978;2023-02-03T01:56:24;4.97;;;1.77;;
59109;SDS011;44895;47.438;18.978;2023-02-03T01:59:33;6.78;;;1.73;;
59109;SDS011;44895;47.438;18.978;2023-02-03T02:02:38;8.05;;;2.38;;
59109;SDS011;44895;47.438;18.978;2023-02-03T02:08:52;3.38;;;1.20;;
59109;SDS011;44895;47.438;18.978;2023-02-03T02:12:00;5.60;;;1.52;;
59109;SDS011;44895;47.438;18.978;2023-02-03T02:15:04;8.25;;;2.15;;
59109;SDS011;44895;47.438;18.978;2023-02-03T02:31:51;7.85;;;3.70;;
59109;SDS011;44895;47.438;18.978;2023-02-03T02:35:01;6.93;;;2.25;;
59109;SDS011;44895;47.438;18.978;2023-02-03T02:38:24;5.97;;;2.25;;
59109;SDS011;44895;47.438;18.978;2023-02-03T02:41:39;8.90;;;2.42;;
59109;SDS011;44895;47.438;18.978;2023-02-03T02:44:58;5.15;;;1.85;;
59109;SDS011;44895;47.438;18.978;2023-02-03T02:48:34;3.25;;;1.50;;
59109;SDS011;44895;47.438;18.978;2023-02-03T02:51:45;4.45;;;1.85;;
59109;SDS011;44895;47.438;18.978;2023-02-03T02:54:51;6.80;;;3.08;;
59109;SDS011;44895;47.438;18.978;2023-02-03T02:58:03;3.92;;;2.08;;
59109;SDS011;44895;47.438;18.978;2023-02-03T03:01:10;5.78;;;3.05;;
59109;SDS011;44895;47.438;18.978;2023-02-03T03:04:15;6.95;;;2.65;;
59109;SDS011;44895;47.438;18.978;2023-02-03T03:07:23;7.78;;;2.70;;
59109;SDS011;44895;47.438;18.978;2023-02-03T03:10:32;5.57;;;2.00;;
59109;SDS011;44895;47.438;18.978;2023-02-03T03:13:44;7.05;;;1.83;;
59109;SDS011;44895;47.438;18.978;2023-02-03T03:16:53;8.05;;;1.88;;
59109;SDS011;44895;47.438;18.978;2023-02-03T03:20:04;4.93;;;1.65;;
59109;SDS011;44895;47.438;18.978;2023-02-03T03:23:19;5.47;;;2.05;;
59109;SDS011;44895;47.438;18.978;2023-02-03T03:26:37;7.68;;;2.78;;
59109;SDS011;44895;47.438;18.978;2023-02-03T03:29:47;6.63;;;2.17;;
59109;SDS011;44895;47.438;18.978;2023-02-03T03:32:55;7.35;;;2.05;;
59109;SDS011;44895;47.438;18.978;2023-02-03T03:36:10;6.80;;;1.83;;
59109;SDS011;44895;47.438;18.978;2023-02-03T03:46:24;6.03;;;1.65;;
59109;SDS011;44895;47.438;18.978;2023-02-03T03:49:32;5.28;;;1.80;;
59109;SDS011;44895;47.438;18.978;2023-02-03T03:52:38;7.95;;;2.05;;
59109;SDS011;44895;47.438;18.978;2023-02-03T03:55:43;5.22;;;2.25;;
59109;SDS011;44895;47.438;18.978;2023-02-03T03:58:51;6.32;;;2.50;;
59109;SDS011;44895;47.438;18.978;2023-02-03T04:01:56;5.95;;;2.47;;
59109;SDS011;44895;47.438;18.978;2023-02-03T04:05:06;9.93;;;3.03;;
59109;SDS011;44895;47.438;18.978;2023-02-03T04:08:12;6.15;;;2.50;;
59109;SDS011;44895;47.438;18.978;2023-02-03T04:11:16;5.80;;;1.65;;
59109;SDS011;44895;47.438;18.978;2023-02-03T04:14:40;6.05;;;2.33;;
59109;SDS011;44895;47.438;18.978;2023-02-03T04:17:44;2.65;;;1.10;;
59109;SDS011;44895;47.438;18.978;2023-02-03T04:20:48;4.72;;;1.52;;
59109;SDS011;44895;47.438;18.978;2023-02-03T04:23:52;6.93;;;1.80;;
59109;SDS011;44895;47.438;18.978;2023-02-03T04:26:56;4.68;;;1.60;;
59109;SDS011;44895;47.438;18.978;2023-02-03T04:29:59;7.68;;;2.05;;
59109;SDS011;44895;47.438;18.978;2023-02-03T04:33:04;6.05;;;2.50;;
59109;SDS011;44895;47.438;18.978;2023-02-03T04:36:07;4.10;;;1.23;;
59109;SDS011;44895;47.438;18.978;2023-02-03T04:39:11;5.20;;;1.63;;
59109;SDS011;44895;47.438;18.978;2023-02-03T04:42:15;10.90;;;2.40;;
59109;SDS011;44895;47.438;18.978;2023-02-03T04:45:19;5.40;;;1.73;;
59109;SDS011;44895;47.438;18.978;2023-02-03T04:48:22;4.97;;;1.30;;
59109;SDS011;44895;47.438;18.978;2023-02-03T04:51:26;5.13;;;1.67;;
59109;SDS011;44895;47.438;18.978;2023-02-03T04:54:30;5.25;;;1.77;;
59109;SDS011;44895;47.438;18.978;2023-02-03T04:57:34;7.78;;;2.05;;
59109;SDS011;44895;47.438;18.978;2023-02-03T05:00:37;4.43;;;1.80;;
59109;SDS011;44895;47.438;18.978;2023-02-03T05:03:41;6.68;;;1.35;;
59109;SDS011;44895;47.438;18.978;2023-02-03T05:06:45;5.38;;;2.50;;
59109;SDS011;44895;47.438;18.978;2023-02-03T05:09:48;5.43;;;2.20;;
59109;SDS011;44895;47.438;18.978;2023-02-03T05:12:52;3.75;;;1.50;;
59109;SDS011;44895;47.438;18.978;2023-02-03T05:15:56;4.60;;;1.40;;
59109;SDS011;44895;47.438;18.978;2023-02-03T05:19:00;4.18;;;1.33;;
59109;SDS011;44895;47.438;18.978;2023-02-03T05:22:03;4.97;;;1.30;;
59109;SDS011;44895;47.438;18.978;2023-02-03T05:25:07;5.30;;;1.85;;
59109;SDS011;44895;47.438;18.978;2023-02-03T05:28:11;3.33;;;1.10;;
59109;SDS011;44895;47.438;18.978;2023-02-03T05:31:15;6.47;;;1.50;;
59109;SDS011;44895;47.438;18.978;2023-02-03T05:34:19;5.80;;;1.27;;
59109;SDS011;44895;47.438;18.978;2023-02-03T05:37:23;5.20;;;1.30;;
59109;SDS011;44895;47.438;18.978;2023-02-03T05:40:26;6.03;;;2.20;;
59109;SDS011;44895;47.438;18.978;2023-02-03T05:43:49;5.85;;;1.77;;
59109;SDS011;44895;47.438;18.978;2023-02-03T05:46:53;5.90;;;2.20;;
59109;SDS011;44895;47.438;18.978;2023-02-03T05:49:58;7.38;;;2.63;;
59109;SDS011;44895;47.438;18.978;2023-02-03T05:53:03;5.50;;;1.75;;
59109;SDS011;44895;47.438;18.978;2023-02-03T05:56:08;5.00;;;1.98;;
59109;SDS011;44895;47.438;18.978;2023-02-03T05:59:12;7.95;;;1.92;;
59109;SDS011;44895;47.438;18.978;2023-02-03T06:02:15;9.18;;;3.03;;
59109;SDS011;44895;47.438;18.978;2023-02-03T06:05:19;5.43;;;2.17;;
59109;SDS011;44895;47.438;18.978;2023-02-03T06:08:24;8.27;;;2.38;;
59109;SDS011;44895;47.438;18.978;2023-02-03T06:11:31;6.40;;;2.60;;
59109;SDS011;44895;47.438;18.978;2023-02-03T06:14:35;10.35;;;3.47;;
59109;SDS011;44895;47.438;18.978;2023-02-03T06:17:42;8.05;;;2.40;;
59109;SDS011;44895;47.438;18.978;2023-02-03T06:20:48;8.43;;;4.32;;
59109;SDS011;44895;47.438;18.978;2023-02-03T06:23:52;6.95;;;3.08;;
59109;SDS011;44895;47.438;18.978;2023-02-03T06:26:56;7.53;;;3.78;;
59109;SDS011;44895;47.438;18.978;2023-02-03T06:30:00;8.20;;;3.47;;
59109;SDS011;44895;47.438;18.978;2023-02-03T06:33:04;6.35;;;2.63;;
59109;SDS011;44895;47.438;18.978;2023-02-03T06:36:08;9.07;;;2.97;;
59109;SDS011;44895;47.438;18.978;2023-02-03T06:39:11;5.90;;;2.45;;
59109;SDS011;44895;47.438;18.978;2023-02-03T06:42:15;8.13;;;2.78;;
59109;SDS011;44895;47.438;18.978;2023-02-03T06:45:19;7.18;;;2.50;;
59109;SDS011;44895;47.438;18.978;2023-02-03T06:48:22;6.63;;;2.92;;
59109;SDS011;44895;47.438;18.978;2023-02-03T06:51:26;10.20;;;3.80;;
59109;SDS011;44895;47.438;18.978;2023-02-03T06:54:30;11.02;;;5.35;;
59109;SDS011;44895;47.438;18.978;2023-02-03T06:57:34;9.05;;;4.57;;
59109;SDS011;44895;47.438;18.978;2023-02-03T07:00:37;15.25;;;4.10;;
59109;SDS011;44895;47.438;18.978;2023-02-03T07:03:41;6.80;;;2.75;;
59109;SDS011;44895;47.438;18.978;2023-02-03T07:06:45;7.65;;;3.08;;
59109;SDS011;44895;47.438;18.978;2023-02-03T07:09:49;8.40;;;3.35;;
59109;SDS011;44895;47.438;18.978;2023-02-03T07:12:52;6.10;;;2.63;;
59109;SDS011;44895;47.438;18.978;2023-02-03T07:15:56;10.15;;;3.55;;
59109;SDS011;44895;47.438;18.978;2023-02-03T07:19:00;6.60;;;2.83;;
59109;SDS011;44895;47.438;18.978;2023-02-03T07:22:04;6.75;;;2.35;;
59109;SDS011;44895;47.438;18.978;2023-02-03T07:25:08;6.13;;;2.42;;
59109;SDS011;44895;47.438;18.978;2023-02-03T07:28:11;7.97;;;2.45;;
59109;SDS011;44895;47.438;18.978;2023-02-03T07:31:15;7.70;;;2.72;;
59109;SDS011;44895;47.438;18.978;2023-02-03T07:34:19;7.43;;;3.00;;
59109;SDS011;44895;47.438;18.978;2023-02-03T07:37:22;6.80;;;2.55;;
59109;SDS011;44895;47.438;18.978;2023-02-03T07:40:26;8.75;;;4.05;;
59109;SDS011;44895;47.438;18.978;2023-02-03T07:43:30;8.13;;;2.88;;
59109;SDS011;44895;47.438;18.978;2023-02-03T07:46:34;7.90;;;3.45;;
59109;SDS011;44895;47.438;18.978;2023-02-03T07:49:42;8.23;;;3.78;;
59109;SDS011;44895;47.438;18.978;2023-02-03T07:52:46;9.02;;;3.05;;
59109;SDS011;44895;47.438;18.978;2023-02-03T07:55:52;9.50;;;4.13;;
59109;SDS011;44895;47.438;18.978;2023-02-03T07:58:55;7.72;;;2.88;;
59109;SDS011;44895;47.438;18.978;2023-02-03T08:01:59;9.75;;;3.90;;
59109;SDS011;44895;47.438;18.978;2023-02-03T08:05:03;12.48;;;4.95;;
59109;SDS011;44895;47.438;18.978;2023-02-03T08:08:07;14.43;;;4.00;;
59109;SDS011;44895;47.438;18.978;2023-02-03T08:11:10;10.48;;;5.00;;
59109;SDS011;44895;47.438;18.978;2023-02-03T08:14:14;9.27;;;3.78;;
59109;SDS011;44895;47.438;18.978;2023-02-03T08:17:18;8.68;;;3.40;;
59109;SDS011;44895;47.438;18.978;2023-02-03T08:20:21;9.70;;;4.10;;
59109;SDS011;44895;47.438;18.978;2023-02-03T08:23:25;7.72;;;3.50;;
59109;SDS011;44895;47.438;18.978;2023-02-03T08:26:29;9.52;;;4.88;;
59109;SDS011;44895;47.438;18.978;2023-02-03T08:29:32;11.40;;;4.38;;
59109;SDS011;44895;47.438;18.978;2023-02-03T08:32:36;10.02;;;3.97;;
59109;SDS011;44895;47.438;18.978;2023-02-03T08:35:43;9.68;;;3.92;;
59109;SDS011;44895;47.438;18.978;2023-02-03T08:38:47;12.30;;;5.20;;
59109;SDS011;44895;47.438;18.978;2023-02-03T08:41:51;10.48;;;3.92;;
59109;SDS011;44895;47.438;18.978;2023-02-03T08:44:55;11.25;;;4.68;;
59109;SDS011;44895;47.438;18.978;2023-02-03T08:47:59;11.13;;;4.60;;
59109;SDS011;44895;47.438;18.978;2023-02-03T08:51:08;10.15;;;3.92;;
59109;SDS011;44895;47.438;18.978;2023-02-03T08:54:16;21.65;;;10.32;;
59109;SDS011;44895;47.438;18.978;2023-02-03T08:57:20;40.10;;;22.77;;
59109;SDS011;44895;47.438;18.978;2023-02-03T09:00:23;14.98;;;6.78;;
59109;SDS011;44895;47.438;18.978;2023-02-03T09:03:27;11.07;;;4.60;;
59109;SDS011;44895;47.438;18.978;2023-02-03T09:06:31;9.00;;;4.35;;
59109;SDS011;44895;47.438;18.978;2023-02-03T09:09:34;10.90;;;4.15;;
59109;SDS011;44895;47.438;18.978;2023-02-03T09:12:38;10.25;;;5.28;;
59109;SDS011;44895;47.438;18.978;2023-02-03T09:15:42;8.75;;;3.38;;
59109;SDS011;44895;47.438;18.978;2023-02-03T09:18:45;8.68;;;4.43;;
59109;SDS011;44895;47.438;18.978;2023-02-03T09:21:50;9.90;;;4.50;;
59109;SDS011;44895;47.438;18.978;2023-02-03T09:24:53;9.50;;;4.22;;
59109;SDS011;44895;47.438;18.978;2023-02-03T09:27:57;13.68;;;4.03;;
59109;SDS011;44895;47.438;18.978;2023-02-03T09:31:04;8.82;;;4.95;;
59109;SDS011;44895;47.438;18.978;2023-02-03T09:34:10;11.30;;;4.25;;
59109;SDS011;44895;47.438;18.978;2023-02-03T09:37:14;12.27;;;4.93;;
59109;SDS011;44895;47.438;18.978;2023-02-03T09:40:20;14.48;;;5.15;;
59109;SDS011;44895;47.438;18.978;2023-02-03T09:46:41;13.68;;;4.70;;
59109;SDS011;44895;47.438;18.978;2023-02-03T09:49:51;12.80;;;5.85;;
59109;SDS011;44895;47.438;18.978;2023-02-03T09:52:58;18.92;;;8.85;;
59109;SDS011;44895;47.438;18.978;2023-02-03T09:56:11;13.38;;;6.05;;
59109;SDS011;44895;47.438;18.978;2023-02-03T09:59:26;13.65;;;5.97;;
59109;SDS011;44895;47.438;18.978;2023-02-03T10:12:46;15.32;;;5.97;;
59109;SDS011;44895;47.438;18.978;2023-02-03T10:19:28;11.32;;;6.80;;
59109;SDS011;44895;47.438;18.978;2023-02-03T10:22:50;12.15;;;6.03;;
59109;SDS011;44895;47.438;18.978;2023-02-03T10:26:04;14.13;;;7.93;;
59109;SDS011;44895;47.438;18.978;2023-02-03T10:29:30;12.60;;;6.97;;
59109;SDS011;44895;47.438;18.978;2023-02-03T10:32:39;15.30;;;9.27;;
59109;SDS011;44895;47.438;18.978;2023-02-03T10:42:22;12.55;;;7.93;;
59109;SDS011;44895;47.438;18.978;2023-02-03T10:45:27;11.60;;;7.32;;
59109;SDS011;44895;47.438;18.978;2023-02-03T10:48:31;11.85;;;6.38;;
59109;SDS011;44895;47.438;18.978;2023-02-03T10:51:36;12.18;;;8.13;;
59109;SDS011;44895;47.438;18.978;2023-02-03T10:54:44;14.52;;;7.63;;
59109;SDS011;44895;47.438;18.978;2023-02-03T10:57:48;14.50;;;8.77;;
59109;SDS011;44895;47.438;18.978;2023-02-03T11:00:56;13.80;;;6.93;;
59109;SDS011;44895;47.438;18.978;2023-02-03T11:04:21;11.93;;;7.13;;
59109;SDS011;44895;47.438;18.978;2023-02-03T11:07:31;13.10;;;7.45;;
59109;SDS011;44895;47.438;18.978;2023-02-03T11:10:36;12.60;;;7.43;;
59109;SDS011;44895;47.438;18.978;2023-02-03T11:13:42;12.88;;;7.10;;
59109;SDS011;44895;47.438;18.978;2023-02-03T11:16:47;10.65;;;6.38;;
59109;SDS011;44895;47.438;18.978;2023-02-03T11:19:52;12.82;;;7.75;;
59109;SDS011;44895;47.438;18.978;2023-02-03T11:22:58;11.23;;;6.70;;
59109;SDS011;44895;47.438;18.978;2023-02-03T11:26:09;10.60;;;6.15;;
59109;SDS011;44895;47.438;18.978;2023-02-03T11:29:18;12.70;;;7.22;;
59109;SDS011;44895;47.438;18.978;2023-02-03T11:32:34;11.40;;;7.85;;
59109;SDS011;44895;47.438;18.978;2023-02-03T11:35:40;18.33;;;8.38;;
59109;SDS011;44895;47.438;18.978;2023-02-03T11:39:10;10.18;;;5.78;;
59109;SDS011;44895;47.438;18.978;2023-02-03T11:42:23;11.50;;;4.93;;
59109;SDS011;44895;47.438;18.978;2023-02-03T11:52:05;8.43;;;4.03;;
59109;SDS011;44895;47.438;18.978;2023-02-03T11:58:46;7.40;;;3.67;;
59109;SDS011;44895;47.438;18.978;2023-02-03T12:12:08;8.95;;;3.63;;
59109;SDS011;44895;47.438;18.978;2023-02-03T12:23:07;9.13;;;5.35;;
59109;SDS011;44895;47.438;18.978;2023-02-03T12:26:30;21.77;;;15.88;;
59109;SDS011;44895;47.438;18.978;2023-02-03T12:29:46;16.02;;;12.00;;
59109;SDS011;44895;47.438;18.978;2023-02-03T12:32:56;12.23;;;5.10;;
59109;SDS011;44895;47.438;18.978;2023-02-03T12:36:09;8.55;;;4.63;;
59109;SDS011;44895;47.438;18.978;2023-02-03T12:42:58;10.27;;;4.75;;
59109;SDS011;44895;47.438;18.978;2023-02-03T12:49:49;14.20;;;7.40;;
59109;SDS011;44895;47.438;18.978;2023-02-03T12:53:04;11.60;;;9.57;;
59109;SDS011;44895;47.438;18.978;2023-02-03T12:56:10;9.23;;;5.75;;
59109;SDS011;44895;47.438;18.978;2023-02-03T12:59:22;13.27;;;7.80;;
59109;SDS011;44895;47.438;18.978;2023-02-03T13:02:31;12.15;;;8.07;;
59109;SDS011;44895;47.438;18.978;2023-02-03T13:09:17;17.52;;;10.20;;
59109;SDS011;44895;47.438;18.978;2023-02-03T13:12:44;12.02;;;7.43;;
59109;SDS011;44895;47.438;18.978;2023-02-03T13:15:52;14.15;;;9.32;;
59109;SDS011;44895;47.438;18.978;2023-02-03T13:19:00;17.77;;;12.13;;
59109;SDS011;44895;47.438;18.978;2023-02-03T13:22:11;18.92;;;9.93;;
59109;SDS011;44895;47.438;18.978;2023-02-03T13:42:31;15.52;;;9.07;;
59109;SDS011;44895;47.438;18.978;2023-02-03T13:45:41;14.27;;;10.35;;
59109;SDS011;44895;47.438;18.978;2023-02-03T13:48:48;14.07;;;9.93;;
59109;SDS011;44895;47.438;18.978;2023-02-03T13:51:52;20.35;;;12.75;;
59109;SDS011;44895;47.438;18.978;2023-02-03T13:54:56;18.35;;;12.85;;
59109;SDS011;44895;47.438;18.978;2023-02-03T13:58:01;18.77;;;11.07;;
59109;SDS011;44895;47.438;18.978;2023-02-03T14:07:47;23.83;;;17.25;;
59109;SDS011;44895;47.438;18.978;2023-02-03T14:20:42;16.70;;;11.38;;
59109;SDS011;44895;47.438;18.978;2023-02-03T14:23:58;16.73;;;11.38;;
59109;SDS011;44895;47.438;18.978;2023-02-03T14:27:20;17.88;;;11.93;;
59109;SDS011;44895;47.438;18.978;2023-02-03T14:30:26;18.65;;;12.70;;
59109;SDS011;44895;47.438;18.978;2023-02-03T14:37:07;18.52;;;13.40;;
59109;SDS011;44895;47.438;18.978;2023-02-03T14:40:21;21.25;;;13.80;;
59109;SDS011;44895;47.438;18.978;2023-02-03T14:43:34;23.58;;;15.85;;
59109;SDS011;44895;47.438;18.978;2023-02-03T14:57:46;22.27;;;14.23;;
59109;SDS011;44895;47.438;18.978;2023-02-03T15:00:57;20.60;;;14.90;;
59109;SDS011;44895;47.438;18.978;2023-02-03T15:04:18;21.38;;;14.75;;
59109;SDS011;44895;47.438;18.978;2023-02-03T15:10:56;21.70;;;16.02;;
59109;SDS011;44895;47.438;18.978;2023-02-03T15:17:23;25.08;;;17.42;;
59109;SDS011;44895;47.438;18.978;2023-02-03T15:20:31;26.38;;;18.88;;
59109;SDS011;44895;47.438;18.978;2023-02-03T15:23:39;30.42;;;21.98;;
59109;SDS011;44895;47.438;18.978;2023-02-03T15:26:49;33.33;;;23.98;;
59109;SDS011;44895;47.438;18.978;2023-02-03T15:29:55;41.17;;;26.42;;
59109;SDS011;44895;47.438;18.978;2023-02-03T15:36:07;45.70;;;30.95;;
59109;SDS011;44895;47.438;18.978;2023-02-03T15:40:07;33.47;;;27.27;;
59109;SDS011;44895;47.438;18.978;2023-02-03T15:49:36;23.80;;;13.68;;
59109;SDS011;44895;47.438;18.978;2023-02-03T15:52:44;21.00;;;13.05;;
59109;SDS011;44895;47.438;18.978;2023-02-03T15:55:49;17.13;;;10.00;;
59109;SDS011;44895;47.438;18.978;2023-02-03T15:58:59;12.70;;;8.60;;
59109;SDS011;44895;47.438;18.978;2023-02-03T16:02:14;13.68;;;8.13;;
59109;SDS011;44895;47.438;18.978;2023-02-03T16:05:25;11.80;;;7.70;;
59109;SDS011;44895;47.438;18.978;2023-02-03T16:08:38;11.15;;;7.57;;
59109;SDS011;44895;47.438;18.978;2023-02-03T16:11:48;10.88;;;5.88;;
59109;SDS011;44895;47.438;18.978;2023-02-03T16:14:52;12.57;;;6.80;;
59109;SDS011;44895;47.438;18.978;2023-02-03T16:17:57;13.25;;;6.93;;
59109;SDS011;44895;47.438;18.978;2023-02-03T16:21:03;13.50;;;8.15;;
59109;SDS011;44895;47.438;18.978;2023-02-03T16:24:26;17.73;;;11.45;;
59109;SDS011;44895;47.438;18.978;2023-02-03T16:27:42;22.88;;;14.18;;
59109;SDS011;44895;47.438;18.978;2023-02-03T16:30:53;18.48;;;11.10;;
59109;SDS011;44895;47.438;18.978;2023-02-03T16:34:18;10.93;;;6.38;;
59109;SDS011;44895;47.438;18.978;2023-02-03T16:37:43;9.75;;;4.63;;
59109;SDS011;44895;47.438;18.978;2023-02-03T16:41:09;8.15;;;3.15;;
59109;SDS011;44895;47.438;18.978;2023-02-03T16:44:36;10.13;;;3.58;;
59109;SDS011;44895;47.438;18.978;2023-02-03T16:47:58;11.65;;;8.10;;
59109;SDS011;44895;47.438;18.978;2023-02-03T16:51:21;10.82;;;6.28;;
59109;SDS011;44895;47.438;18.978;2023-02-03T16:54:25;8.38;;;4.07;;
59109;SDS011;44895;47.438;18.978;2023-02-03T16:57:30;11.27;;;7.50;;
59109;SDS011;44895;47.438;18.978;2023-02-03T17:00:34;9.43;;;3.97;;
59109;SDS011;44895;47.438;18.978;2023-02-03T17:03:38;9.32;;;4.63;;
59109;SDS011;44895;47.438;18.978;2023-02-03T17:06:41;15.50;;;8.18;;
59109;SDS011;44895;47.438;18.978;2023-02-03T17:09:46;8.73;;;4.43;;
59109;SDS011;44895;47.438;18.978;2023-02-03T17:12:50;13.10;;;6.32;;
59109;SDS011;44895;47.438;18.978;2023-02-03T17:15:54;10.45;;;5.05;;
59109;SDS011;44895;47.438;18.978;2023-02-03T17:18:59;10.63;;;5.47;;
59109;SDS011;44895;47.438;18.978;2023-02-03T17:22:03;10.18;;;4.57;;
59109;SDS011;44895;47.438;18.978;2023-02-03T17:25:07;8.48;;;3.95;;
59109;SDS011;44895;47.438;18.978;2023-02-03T17:28:11;17.08;;;8.82;;
59109;SDS011;44895;47.438;18.978;2023-02-03T17:31:17;10.23;;;4.57;;
59109;SDS011;44895;47.438;18.978;2023-02-03T17:34:22;8.48;;;4.40;;
59109;SDS011;44895;47.438;18.978;2023-02-03T17:37:26;9.43;;;3.50;;
59109;SDS011;44895;47.438;18.978;2023-02-03T17:40:30;7.22;;;3.42;;
59109;SDS011;44895;47.438;18.978;2023-02-03T17:43:34;7.22;;;3.13;;
59109;SDS011;44895;47.438;18.978;2023-02-03T17:46:38;8.07;;;3.47;;
59109;SDS011;44895;47.438;18.978;2023-02-03T17:49:42;6.18;;;3.25;;
59109;SDS011;44895;47.438;18.978;2023-02-03T17:52:50;7.75;;;2.80;;
59109;SDS011;44895;47.438;18.978;2023-02-03T17:55:55;8.93;;;3.70;;
59109;SDS011;44895;47.438;18.978;2023-02-03T17:59:00;6.63;;;2.95;;
59109;SDS011;44895;47.438;18.978;2023-02-03T18:02:07;5.78;;;1.90;;
59109;SDS011;44895;47.438;18.978;2023-02-03T18:05:12;5.03;;;2.05;;
59109;SDS011;44895;47.438;18.978;2023-02-03T18:08:16;6.63;;;2.15;;
59109;SDS011;44895;47.438;18.978;2023-02-03T18:11:21;8.95;;;3.47;;
59109;SDS011;44895;47.438;18.978;2023-02-03T18:14:26;7.75;;;2.60;;
59109;SDS011;44895;47.438;18.978;2023-02-03T18:17:30;8.82;;;3.63;;
59109;SDS011;44895;47.438;18.978;2023-02-03T18:20:34;7.93;;;3.63;;
59109;SDS011;44895;47.438;18.978;2023-02-03T18:23:38;8.57;;;3.75;;
59109;SDS011;44895;47.438;18.978;2023-02-03T18:26:44;7.82;;;3.22;;
59109;SDS011;44895;47.438;18.978;2023-02-03T18:29:54;11.88;;;4.82;;
59109;SDS011;44895;47.438;18.978;2023-02-03T18:32:59;8.35;;;3.22;;
59109;SDS011;44895;47.438;18.978;2023-02-03T18:36:04;9.27;;;3.17;;
59109;SDS011;44895;47.438;18.978;2023-02-03T18:39:11;6.22;;;3.10;;
59109;SDS011;44895;47.438;18.978;2023-02-03T18:42:17;8.80;;;3.40;;
59109;SDS011;44895;47.438;18.978;2023-02-03T18:45:23;8.35;;;3.60;;
59109;SDS011;44895;47.438;18.978;2023-02-03T18:48:27;10.38;;;4.75;;
59109;SDS011;44895;47.438;18.978;2023-02-03T18:51:31;8.95;;;4.20;;
59109;SDS011;44895;47.438;18.978;2023-02-03T18:54:35;7.95;;;3.10;;
59109;SDS011;44895;47.438;18.978;2023-02-03T18:57:39;5.47;;;2.35;;
59109;SDS011;44895;47.438;18.978;2023-02-03T19:00:44;7.28;;;2.63;;
59109;SDS011;44895;47.438;18.978;2023-02-03T19:03:48;7.70;;;2.80;;
59109;SDS011;44895;47.438;18.978;2023-02-03T19:06:53;9.13;;;4.10;;
59109;SDS011;44895;47.438;18.978;2023-02-03T19:09:57;12.18;;;5.35;;
59109;SDS011;44895;47.438;18.978;2023-02-03T19:13:01;9.90;;;4.50;;
59109;SDS011;44895;47.438;18.978;2023-02-03T19:16:06;7.75;;;3.20;;
59109;SDS011;44895;47.438;18.978;2023-02-03T19:19:11;13.88;;;5.13;;
59109;SDS011;44895;47.438;18.978;2023-02-03T19:22:17;9.43;;;3.38;;
59109;SDS011;44895;47.438;18.978;2023-02-03T19:25:21;8.25;;;2.53;;
59109;SDS011;44895;47.438;18.978;2023-02-03T19:28:26;7.45;;;3.25;;
59109;SDS011;44895;47.438;18.978;2023-02-03T19:31:30;5.20;;;1.75;;
59109;SDS011;44895;47.438;18.978;2023-02-03T19:34:34;3.80;;;1.17;;
59109;SDS011;44895;47.438;18.978;2023-02-03T19:37:38;1.52;;;0.70;;
59109;SDS011;44895;47.438;18.978;2023-02-03T19:40:44;7.22;;;1.17;;
59109;SDS011;44895;47.438;18.978;2023-02-03T19:43:52;2.72;;;1.08;;
59109;SDS011;44895;47.438;18.978;2023-02-03T19:46:57;2.60;;;0.90;;
59109;SDS011;44895;47.438;18.978;2023-02-03T19:50:02;2.70;;;0.57;;
59109;SDS011;44895;47.438;18.978;2023-02-03T19:53:07;1.80;;;0.60;;
59109;SDS011;44895;47.438;18.978;2023-02-03T19:56:11;1.73;;;0.40;;
59109;SDS011;44895;47.438;18.978;2023-02-03T19:59:16;1.33;;;0.63;;
59109;SDS011;44895;47.438;18.978;2023-02-03T20:02:20;2.95;;;1.35;;
59109;SDS011;44895;47.438;18.978;2023-02-03T20:05:24;4.35;;;0.82;;
59109;SDS011;44895;47.438;18.978;2023-02-03T20:08:29;2.22;;;0.98;;
59109;SDS011;44895;47.438;18.978;2023-02-03T20:11:34;3.28;;;0.95;;
59109;SDS011;44895;47.438;18.978;2023-02-03T20:14:39;3.63;;;0.90;;
59109;SDS011;44895;47.438;18.978;2023-02-03T20:17:43;3.13;;;0.98;;
59109;SDS011;44895;47.438;18.978;2023-02-03T20:20:51;1.92;;;0.80;;
59109;SDS011;44895;47.438;18.978;2023-02-03T20:23:57;5.10;;;2.03;;
59109;SDS011;44895;47.438;18.978;2023-02-03T20:27:02;3.90;;;1.27;;
59109;SDS011;44895;47.438;18.978;2023-02-03T20:30:07;3.30;;;1.08;;
59109;SDS011;44895;47.438;18.978;2023-02-03T20:33:13;3.35;;;1.30;;
59109;SDS011;44895;47.438;18.978;2023-02-03T20:36:18;4.25;;;1.25;;
59109;SDS011;44895;47.438;18.978;2023-02-03T20:39:22;2.30;;;1.10;;
59109;SDS011;44895;47.438;18.978;2023-02-03T20:42:26;2.83;;;1.23;;
59109;SDS011;44895;47.438;18.978;2023-02-03T20:45:33;3.75;;;1.10;;
59109;SDS011;44895;47.438;18.978;2023-02-03T20:48:41;4.22;;;1.67;;
59109;SDS011;44895;47.438;18.978;2023-02-03T20:51:46;3.63;;;0.93;;
59109;SDS011;44895;47.438;18.978;2023-02-03T20:54:51;4.88;;;0.90;;